Time;durP1;ratioP1;P1;durP2;ratioP2;P2;SDS_P1;SDS_P2;PMS_P1;PMS_P2;Temp;Humidity;BMP_temperature;BMP_pressure;BME280_temperature;BME280_humidity;BME280_pressure;Samples;Min_cycle;Max_cycle;Signal;HPM_P1;HPM_P2
2022/10/08 00:00:47;;;;;;;1.95;0.52;;;;;;;13.55;80.03;101718.16;5014056;28;100889;-30
2022/10/08 00:03:15;;;;;;;0.67;0.37;;;;;;;13.55;80.41;101719.00;5014548;28;101478;-30
2022/10/08 00:05:40;;;;;;;0.35;0.28;;;;;;;13.54;80.42;101727.28;5014661;28;96714;-30
2022/10/08 00:08:06;;;;;;;0.60;0.60;;;;;;;13.53;80.76;101718.22;5015987;28;96818;-30
2022/10/08 00:10:32;;;;;;;2.58;0.75;;;;;;;13.54;80.51;101722.72;5014296;28;101081;-31
2022/10/08 00:12:59;;;;;;;0.40;0.30;;;;;;;13.57;80.92;101713.50;5015708;28;97277;-32
2022/10/08 00:15:25;;;;;;;0.95;0.40;;;;;;;13.56;81.08;101709.91;5014376;28;96860;-30
2022/10/08 00:17:51;;;;;;;1.33;0.68;;;;;;;13.56;80.70;101728.97;5014973;28;96853;-29
2022/10/08 00:20:16;;;;;;;2.83;0.60;;;;;;;13.55;81.80;101716.28;5015835;28;98065;-30
2022/10/08 00:22:42;;;;;;;0.70;0.35;;;;;;;13.52;81.78;101716.50;5015525;28;97306;-30
2022/10/08 00:25:09;;;;;;;4.13;0.73;;;;;;;13.49;81.72;101724.84;5014925;28;96458;-30
2022/10/08 00:27:34;;;;;;;1.30;0.50;;;;;;;13.48;83.02;101712.19;5015913;28;96845;-30
2022/10/08 00:30:00;;;;;;;1.75;0.70;;;;;;;13.49;82.08;101719.41;5015915;28;97331;-31
2022/10/08 00:32:25;;;;;;;0.95;0.43;;;;;;;13.46;82.83;101708.69;5015578;28;97811;-30
2022/10/08 00:34:50;;;;;;;0.20;0.17;;;;;;;13.49;82.30;101707.63;5015750;28;96481;-30
2022/10/08 00:37:16;;;;;;;1.55;0.55;;;;;;;13.47;82.14;101715.91;5015790;28;96820;-30
2022/10/08 00:39:41;;;;;;;2.65;0.63;;;;;;;13.51;81.61;101720.16;5014575;28;111134;-30
2022/10/08 00:42:10;;;;;;;3.08;0.32;;;;;;;13.48;81.53;101709.47;5015468;28;98301;-30
2022/10/08 00:44:50;;;;;;;3.50;0.38;;;;;;;13.48;82.35;101723.06;5013780;28;96551;-30
2022/10/08 00:47:36;;;;;;;0.43;0.32;;;;;;;13.45;82.74;101720.53;5015483;28;96705;-31
2022/10/08 00:50:13;;;;;;;1.27;0.38;;;;;;;13.46;82.09;101716.84;5013655;28;100723;-30
2022/10/08 00:52:44;;;;;;;2.65;0.35;;;;;;;13.45;82.59;101720.53;5013676;28;100903;-30
2022/10/08 00:55:12;;;;;;;1.35;0.50;;;;;;;13.46;82.47;101724.13;5015650;28;96624;-30
2022/10/08 00:57:39;;;;;;;3.50;0.75;;;;;;;13.45;82.55;101723.25;5013965;28;96864;-30
2022/10/08 01:00:24;;;;;;;4.55;0.65;;;;;;;13.46;82.21;101722.28;5013471;28;101025;-30
2022/10/08 01:02:51;;;;;;;0.75;0.60;;;;;;;13.45;82.50;101717.81;5013197;28;101339;-31
2022/10/08 01:05:21;;;;;;;1.55;0.52;;;;;;;13.40;82.72;101714.50;5013663;28;96784;-32
2022/10/08 01:07:53;;;;;;;3.28;0.80;;;;;;;13.38;83.82;101714.59;5014232;28;96785;-32
2022/10/08 01:10:30;;;;;;;1.02;0.43;;;;;;;13.38;83.09;101727.31;5013439;28;101119;-30
2022/10/08 01:13:05;;;;;;;0.77;0.30;;;;;;;13.39;83.74;101720.91;5014653;28;99197;-30
2022/10/08 01:15:41;;;;;;;0.77;0.25;;;;;;;13.42;83.95;101719.84;5014522;28;96592;-30
2022/10/08 01:18:27;;;;;;;2.42;0.50;;;;;;;13.39;83.93;101712.72;5013584;28;96780;-30
2022/10/08 01:21:10;;;;;;;1.13;0.35;;;;;;;13.38;83.52;101722.75;5013312;28;100910;-29
2022/10/08 01:23:53;;;;;;;4.47;0.90;;;;;;;13.41;83.76;101716.25;5013129;28;100763;-30
2022/10/08 01:26:33;;;;;;;2.33;0.60;;;;;;;13.42;83.51;101725.28;5014943;28;96483;-30
2022/10/08 01:29:13;;;;;;;0.47;0.10;;;;;;;13.43;83.41;101716.16;5013684;28;96732;-30
2022/10/08 01:31:46;;;;;;;0.75;0.35;;;;;;;13.42;83.24;101731.63;5013175;28;100922;-30
2022/10/08 01:34:31;;;;;;;2.40;0.50;;;;;;;13.43;83.61;101729.78;5014751;28;97404;-29
2022/10/08 01:37:00;;;;;;;1.58;0.50;;;;;;;13.44;83.76;101726.06;5013538;28;96685;-31
2022/10/08 01:39:31;;;;;;;0.85;0.20;;;;;;;13.43;83.38;101727.91;5013193;28;96971;-31
2022/10/08 01:42:00;;;;;;;5.03;0.50;;;;;;;13.41;83.59;101729.84;5012601;28;101359;-31
2022/10/08 01:44:36;;;;;;;2.17;0.40;;;;;;;13.36;84.39;101724.69;5014175;28;99383;-31
2022/10/08 01:47:05;;;;;;;2.20;0.20;;;;;;;13.35;84.10;101730.22;5014795;28;96660;-31
2022/10/08 01:49:41;;;;;;;1.55;0.40;;;;;;;13.32;84.00;101731.28;5013182;28;96783;-30
2022/10/08 01:52:11;;;;;;;0.25;0.20;;;;;;;13.32;84.79;101738.56;5013834;28;100834;-31
2022/10/08 01:54:39;;;;;;;1.10;0.28;;;;;;;13.28;84.51;101734.28;5016392;28;101064;-30
2022/10/08 01:57:08;;;;;;;3.65;0.43;;;;;;;13.30;83.92;101737.75;5016785;28;96589;-30
2022/10/08 01:59:38;;;;;;;0.68;0.30;;;;;;;13.25;84.04;101732.59;5018533;28;96674;-30
2022/10/08 02:02:14;;;;;;;0.65;0.28;;;;;;;13.26;83.93;101734.31;5016375;28;100814;-31
2022/10/08 02:04:41;;;;;;;1.25;0.25;;;;;;;13.28;83.54;101737.00;5016427;28;100788;-30
2022/10/08 02:07:10;;;;;;;0.63;0.32;;;;;;;13.28;83.56;101737.00;5016107;28;96569;-32
2022/10/08 02:09:39;;;;;;;1.50;0.57;;;;;;;13.26;83.75;101733.47;5016475;28;96804;-30
2022/10/08 02:12:05;;;;;;;3.45;0.38;;;;;;;13.26;84.04;101734.31;5016045;28;101141;-30
2022/10/08 02:14:32;;;;;;;0.85;0.22;;;;;;;13.24;84.32;101740.81;5017336;28;98743;-30
2022/10/08 02:17:10;;;;;;;1.17;0.30;;;;;;;13.28;84.60;101745.16;5016435;28;96591;-30
2022/10/08 02:19:45;;;;;;;3.80;0.45;;;;;;;13.25;84.42;101739.84;5018235;28;96898;-31
2022/10/08 02:22:17;;;;;;;3.15;0.40;;;;;;;13.23;83.86;101739.06;5016186;28;101108;-30
2022/10/08 02:24:49;;;;;;;0.32;0.30;;;;;;;13.20;83.93;101737.41;5016461;28;100793;-31
2022/10/08 02:27:20;;;;;;;2.85;0.63;;;;;;;13.18;83.77;101742.94;5016325;28;96601;-30
2022/10/08 02:30:08;;;;;;;2.77;0.57;;;;;;;13.18;84.02;101745.66;5016289;28;96645;-31
2022/10/08 02:32:42;;;;;;;2.38;0.47;;;;;;;13.15;83.49;101748.53;5016628;28;99938;-31
2022/10/08 02:35:24;;;;;;;1.52;0.40;;;;;;;13.13;83.74;101739.63;5016007;28;100613;-30
2022/10/08 02:37:58;;;;;;;3.40;0.35;;;;;;;13.09;83.52;101740.75;5017517;28;96556;-30
2022/10/08 02:40:27;;;;;;;2.75;0.50;;;;;;;13.06;84.06;101742.75;5016215;28;96872;-30
2022/10/08 02:42:59;;;;;;;0.90;0.50;;;;;;;13.03;83.82;101749.25;5015577;28;99906;-30
2022/10/08 02:45:31;;;;;;;1.40;0.43;;;;;;;13.03;83.76;101753.81;5015113;28;101055;-31
2022/10/08 02:48:04;;;;;;;3.25;0.63;;;;;;;12.96;83.75;101742.41;5016046;28;96625;-30
2022/10/08 02:50:31;;;;;;;3.42;0.60;;;;;;;12.93;83.70;101745.31;5033254;28;96647;-31
2022/10/08 02:52:58;;;;;;;1.23;0.50;;;;;;;12.93;84.15;101742.59;5015525;28;99672;-31
2022/10/08 02:55:35;;;;;;;0.47;0.20;;;;;;;12.92;84.18;101751.75;5015387;28;100932;-32
2022/10/08 02:58:05;;;;;;;4.45;0.52;;;;;;;12.89;83.82;101744.59;5015264;28;96603;-30
2022/10/08 03:00:37;;;;;;;1.13;0.38;;;;;;;12.86;84.25;101741.19;5015553;28;96939;-30
2022/10/08 03:03:15;;;;;;;1.30;0.50;;;;;;;12.85;83.63;101761.22;5014723;28;100830;-31
2022/10/08 03:05:42;;;;;;;1.55;0.55;;;;;;;12.82;83.85;101751.34;5016277;28;98956;-30
2022/10/08 03:08:13;;;;;;;3.38;0.40;;;;;;;12.79;84.03;101751.53;5015659;28;96573;-30
2022/10/08 03:10:40;;;;;;;1.60;0.52;;;;;;;12.78;83.77;101757.94;5015855;28;96707;-30
2022/10/08 03:13:07;;;;;;;2.13;0.65;;;;;;;12.79;83.75;101764.25;5015131;28;100755;-31
2022/10/08 03:15:35;;;;;;;0.22;0.10;;;;;;;12.78;83.91;101767.94;5015388;28;101154;-30
2022/10/08 03:18:07;;;;;;;3.83;0.43;;;;;;;12.79;83.84;101775.13;5015506;28;96665;-30
2022/10/08 03:20:38;;;;;;;0.50;0.38;;;;;;;12.75;83.96;101777.13;5015445;28;96777;-30
2022/10/08 03:23:04;;;;;;;1.13;0.60;;;;;;;12.72;84.70;101775.47;5014766;28;101013;-30
2022/10/08 03:25:29;;;;;;;1.10;0.57;;;;;;;12.75;84.40;101777.13;5016524;28;97872;-29
2022/10/08 03:27:54;;;;;;;0.63;0.47;;;;;;;12.76;83.94;101778.91;5014923;28;104839;-30
2022/10/08 03:30:20;;;;;;;2.90;0.75;;;;;;;12.76;84.69;101781.63;5016856;28;96675;-31
2022/10/08 03:32:45;;;;;;;5.32;0.75;;;;;;;12.75;84.12;101791.63;5015779;28;107191;-31
2022/10/08 03:35:10;;;;;;;4.72;0.75;;;;;;;12.73;84.00;101785.38;5015831;28;112781;-31
2022/10/08 03:37:35;;;;;;;3.10;0.43;;;;;;;12.73;84.25;101787.25;5016452;28;99031;-31
2022/10/08 03:40:01;;;;;;;3.13;0.60;;;;;;;12.69;83.94;101781.06;5016521;28;102506;-30
2022/10/08 03:42:26;;;;;;;1.15;0.52;;;;;;;12.67;83.99;101790.28;5016077;28;109249;-30
2022/10/08 03:44:52;;;;;;;1.02;0.45;;;;;;;12.66;83.72;101781.25;5015352;28;99104;-31
2022/10/08 03:47:17;;;;;;;1.67;0.80;;;;;;;12.68;83.72;101797.47;5015668;28;96475;-30
2022/10/08 03:49:43;;;;;;;2.40;0.70;;;;;;;12.64;83.69;101804.94;5016468;28;96845;-31
2022/10/08 03:52:08;;;;;;;0.40;0.35;;;;;;;12.62;83.44;101804.13;5015880;28;99477;-30
2022/10/08 03:54:34;;;;;;;2.83;0.63;;;;;;;12.63;83.47;101805.91;5016030;28;102676;-30
2022/10/08 03:57:00;;;;;;;0.43;0.32;;;;;;;12.61;83.74;101804.19;5014942;28;96653;-30
2022/10/08 03:59:26;;;;;;;4.75;0.68;;;;;;;12.60;83.38;101811.47;5014773;28;96676;-33
2022/10/08 04:01:51;;;;;;;1.75;0.60;;;;;;;12.62;83.34;101812.28;5015391;28;116038;-30
2022/10/08 04:04:16;;;;;;;1.45;0.70;;;;;;;12.60;83.18;101814.19;5015635;28;112115;-30
2022/10/08 04:06:42;;;;;;;4.72;0.88;;;;;;;12.55;83.67;101816.28;5015920;28;101414;-29
2022/10/08 04:09:09;;;;;;;3.45;0.65;;;;;;;12.54;83.91;101814.56;5016069;28;96885;-30
2022/10/08 04:11:34;;;;;;;2.03;0.40;;;;;;;12.50;83.45;101813.81;5013838;28;101093;-31
2022/10/08 04:13:59;;;;;;;3.40;0.47;;;;;;;12.51;83.47;101815.59;5014960;28;107266;-30
2022/10/08 04:16:25;;;;;;;2.00;0.52;;;;;;;12.47;83.13;101819.44;5015660;28;96554;-30
2022/10/08 04:18:50;;;;;;;1.35;0.40;;;;;;;12.48;83.45;101820.31;5015347;28;104747;-31
2022/10/08 04:21:17;;;;;;;4.13;0.95;;;;;;;12.47;83.35;101827.59;5015415;28;104686;-30
2022/10/08 04:23:44;;;;;;;2.15;0.35;;;;;;;12.46;83.04;101825.81;5014257;28;100663;-31
2022/10/08 04:26:12;;;;;;;2.20;0.30;;;;;;;12.48;83.18;101828.47;5014491;28;96854;-30
2022/10/08 04:28:40;;;;;;;4.00;0.50;;;;;;;12.47;83.14;101837.59;5014881;28;96898;-30
2022/10/08 04:31:17;;;;;;;5.10;0.60;;;;;;;12.48;83.18;101839.31;5013858;28;100770;-31
2022/10/08 04:33:44;;;;;;;1.80;0.90;;;;;;;12.43;83.39;101838.69;5015253;28;98753;-30
2022/10/08 04:36:17;;;;;;;1.02;0.40;;;;;;;12.41;83.40;101838.78;5013807;28;96625;-30
2022/10/08 04:38:43;;;;;;;1.45;0.60;;;;;;;12.41;83.50;101849.63;5015217;28;96599;-30
2022/10/08 04:41:08;;;;;;;0.88;0.32;;;;;;;12.43;83.20;101852.28;5015272;28;98061;-30
2022/10/08 04:43:35;;;;;;;0.47;0.30;;;;;;;12.41;83.27;101854.19;5015018;28;99767;-31
2022/10/08 04:46:02;;;;;;;2.55;0.28;;;;;;;12.40;82.82;101850.63;5013508;28;96708;-31
2022/10/08 04:48:27;;;;;;;0.98;0.30;;;;;;;12.37;82.22;101850.78;5014023;28;96904;-32
2022/10/08 04:50:57;;;;;;;0.52;0.28;;;;;;;12.35;81.80;101859.94;5015250;28;98608;-30
2022/10/08 04:53:24;;;;;;;0.30;0.30;;;;;;;12.30;81.98;101858.38;5013955;28;100952;-31
2022/10/08 04:55:50;;;;;;;2.00;0.70;;;;;;;12.30;82.08;101862.94;5014112;28;96709;-30
2022/10/08 04:58:15;;;;;;;3.08;0.65;;;;;;;12.30;81.74;101857.50;5015193;28;96775;-31
2022/10/08 05:00:41;;;;;;;1.00;0.40;;;;;;;12.29;81.64;101866.59;5014833;28;97371;-30
2022/10/08 05:03:06;;;;;;;0.88;0.47;;;;;;;12.24;81.51;101858.69;5015230;28;97252;-29
2022/10/08 05:05:31;;;;;;;4.25;0.55;;;;;;;12.23;81.60;101867.81;5014552;28;110687;-31
2022/10/08 05:07:56;;;;;;;0.47;0.30;;;;;;;12.20;81.24;101867.94;5015307;28;96784;-30
2022/10/08 05:10:23;;;;;;;1.95;0.73;;;;;;;12.22;81.39;101878.75;5013328;28;101674;-31
2022/10/08 05:12:48;;;;;;;3.80;0.30;;;;;;;12.20;81.05;101881.53;5014648;28;99094;-30
2022/10/08 05:15:14;;;;;;;1.58;0.52;;;;;;;12.19;80.93;101876.19;5013627;28;96682;-30
2022/10/08 05:17:39;;;;;;;3.40;0.28;;;;;;;12.17;81.02;101880.81;5015624;28;96854;-30
2022/10/08 05:20:05;;;;;;;1.75;0.63;;;;;;;12.17;80.82;101883.53;5014761;28;97988;-30
2022/10/08 05:22:30;;;;;;;1.38;0.40;;;;;;;12.11;80.96;101882.03;5014572;28;100205;-31
2022/10/08 05:24:56;;;;;;;3.20;0.40;;;;;;;12.06;81.20;101884.97;5014443;28;96725;-30
2022/10/08 05:27:21;;;;;;;1.77;0.40;;;;;;;12.01;81.12;101887.06;5013973;28;96804;-30
2022/10/08 05:29:46;;;;;;;3.55;0.55;;;;;;;12.03;80.76;101895.97;5014743;28;99451;-30
2022/10/08 05:32:11;;;;;;;0.45;0.20;;;;;;;12.00;80.66;101887.13;5014101;28;112877;-31
2022/10/08 05:34:37;;;;;;;0.88;0.30;;;;;;;11.99;80.72;101898.91;5014144;28;109379;-30
2022/10/08 05:37:02;;;;;;;0.98;0.38;;;;;;;11.95;80.71;101898.22;5014909;28;96806;-30
2022/10/08 05:39:28;;;;;;;2.20;0.30;;;;;;;11.95;80.58;101905.50;5014327;28;97497;-30
2022/10/08 05:41:53;;;;;;;2.47;0.35;;;;;;;11.90;80.64;101913.84;5014695;28;107077;-30
2022/10/08 05:44:19;;;;;;;2.85;0.55;;;;;;;11.86;80.36;101923.06;5014724;28;96990;-29
2022/10/08 05:46:44;;;;;;;1.65;0.43;;;;;;;11.83;80.54;101917.81;5014349;28;96838;-30
2022/10/08 05:49:17;;;;;;;3.33;0.45;;;;;;;11.84;80.27;101915.00;5014133;28;98052;-30
2022/10/08 05:51:43;;;;;;;1.60;0.50;;;;;;;11.85;80.21;101926.75;5012794;28;100869;-30
2022/10/08 05:54:08;;;;;;;1.27;0.38;;;;;;;11.88;80.08;101926.63;5014680;28;96740;-30
2022/10/08 05:56:33;;;;;;;4.35;0.40;;;;;;;11.87;79.89;101928.47;5014367;28;97554;-30
2022/10/08 05:58:59;;;;;;;2.28;0.40;;;;;;;11.85;79.93;101933.06;5014450;28;97856;-30
2022/10/08 06:01:27;;;;;;;0.25;0.10;;;;;;;11.87;79.64;101938.47;5014292;28;100807;-31
2022/10/08 06:03:55;;;;;;;3.30;0.68;;;;;;;11.87;80.11;101944.75;5013080;28;96742;-31
2022/10/08 06:06:22;;;;;;;1.27;0.38;;;;;;;11.88;80.17;101942.91;5013277;28;96843;-31
2022/10/08 06:08:57;;;;;;;0.98;0.30;;;;;;;11.89;79.89;101959.16;5012614;28;101034;-30
2022/10/08 06:11:23;;;;;;;1.52;0.45;;;;;;;11.90;79.89;101957.31;5013928;28;98579;-30
2022/10/08 06:13:52;;;;;;;3.63;0.93;;;;;;;11.89;79.89;101963.66;5012235;28;96626;-30
2022/10/08 06:16:18;;;;;;;1.38;0.47;;;;;;;11.87;79.90;101969.19;5014197;28;96823;-32
2022/10/08 06:18:44;;;;;;;1.45;0.50;;;;;;;11.87;79.63;101979.19;5014077;28;97264;-31
2022/10/08 06:21:14;;;;;;;0.88;0.28;;;;;;;11.84;79.04;101984.69;5013892;28;102028;-31
2022/10/08 06:23:45;;;;;;;1.60;0.32;;;;;;;11.85;79.40;101981.94;5012709;28;96879;-30
2022/10/08 06:26:10;;;;;;;0.60;0.32;;;;;;;11.85;79.62;101992.78;5012961;28;96740;-30
2022/10/08 06:28:38;;;;;;;2.60;0.40;;;;;;;11.85;79.33;101987.34;5014113;28;97444;-32
2022/10/08 06:31:05;;;;;;;1.50;0.47;;;;;;;11.84;79.21;101996.44;5012708;28;100768;-30
2022/10/08 06:33:30;;;;;;;1.75;0.32;;;;;;;11.86;79.33;101999.09;5012725;28;96695;-30
2022/10/08 06:36:00;;;;;;;2.58;0.43;;;;;;;11.87;79.24;102009.03;5013948;28;96858;-30
2022/10/08 06:38:26;;;;;;;1.63;0.32;;;;;;;11.90;79.04;102011.59;5014844;28;97623;-31
2022/10/08 06:40:51;;;;;;;1.05;0.47;;;;;;;11.89;78.76;102005.28;5016347;28;115647;-30
2022/10/08 06:43:18;;;;;;;8.68;0.90;;;;;;;11.94;78.69;102007.78;5016794;28;107838;-30
2022/10/08 06:45:45;;;;;;;3.88;0.60;;;;;;;11.95;78.72;102016.81;5015656;28;96967;-31
2022/10/08 06:48:12;;;;;;;0.63;0.30;;;;;;;11.96;78.67;102030.28;5015588;28;100929;-30
2022/10/08 06:50:38;;;;;;;0.30;0.22;;;;;;;11.98;78.64;102024.78;5015492;28;101115;-30
2022/10/08 06:53:05;;;;;;;0.32;0.13;;;;;;;12.01;78.23;102036.41;5015819;28;96689;-31
2022/10/08 06:55:32;;;;;;;3.83;0.28;;;;;;;12.03;77.80;102049.91;5016247;28;96703;-30
2022/10/08 06:57:57;;;;;;;1.00;0.43;;;;;;;12.02;78.08;102049.03;5015391;28;101716;-32
2022/10/08 07:00:23;;;;;;;0.68;0.30;;;;;;;12.02;77.83;102050.88;5015487;28;100835;-30
2022/10/08 07:02:48;;;;;;;3.70;0.43;;;;;;;12.02;77.95;102038.16;5016754;28;96686;-32
2022/10/08 07:05:14;;;;;;;1.10;0.38;;;;;;;12.02;78.27;102057.16;5016873;28;96483;-30
2022/10/08 07:07:39;;;;;;;2.20;0.47;;;;;;;12.02;78.14;102045.44;5016847;28;97850;-30
2022/10/08 07:10:04;;;;;;;3.03;0.50;;;;;;;12.02;77.87;102061.72;5016476;28;106427;-31
2022/10/08 07:12:31;;;;;;;1.88;0.45;;;;;;;12.04;77.87;102057.09;5016820;28;96527;-31
2022/10/08 07:14:57;;;;;;;0.75;0.40;;;;;;;12.05;77.68;102067.00;5015414;28;96994;-30
2022/10/08 07:17:24;;;;;;;1.83;0.40;;;;;;;12.11;77.57;102056.72;5016768;28;97857;-30
2022/10/08 07:19:50;;;;;;;5.70;0.30;;;;;;;12.11;77.82;102064.88;5016473;28;99335;-31
2022/10/08 07:22:15;;;;;;;2.97;0.60;;;;;;;12.15;77.60;102071.03;5015174;28;107622;-31
2022/10/08 07:24:40;;;;;;;1.10;0.65;;;;;;;12.14;77.71;102077.41;5016769;28;96949;-30
2022/10/08 07:27:06;;;;;;;3.42;0.38;;;;;;;12.13;77.63;102078.34;5015677;28;113477;-30
2022/10/08 07:29:31;;;;;;;8.15;0.40;;;;;;;12.15;77.23;102079.16;5015696;28;115412;-32
2022/10/08 07:31:56;;;;;;;4.25;0.40;;;;;;;12.13;77.07;102083.78;5016569;28;96520;-30
2022/10/08 07:34:22;;;;;;;0.68;0.17;;;;;;;12.19;77.00;102082.63;5015775;28;110630;-30
2022/10/08 07:36:47;;;;;;;0.75;0.30;;;;;;;12.23;76.85;102087.84;5016367;28;97901;-32
2022/10/08 07:39:15;;;;;;;1.10;0.35;;;;;;;12.19;76.86;102102.53;5015944;28;99238;-32
2022/10/08 07:41:40;;;;;;;3.50;0.70;;;;;;;12.18;76.92;102092.63;5015186;28;96576;-31
2022/10/08 07:44:06;;;;;;;0.52;0.25;;;;;;;12.17;76.80;102099.00;5017117;28;96809;-30
2022/10/08 07:46:35;;;;;;;1.33;0.32;;;;;;;12.20;76.73;102114.25;5014164;28;100909;-30
2022/10/08 07:49:03;;;;;;;7.75;0.73;;;;;;;12.20;76.94;102107.00;5015716;28;99293;-31
2022/10/08 07:51:30;;;;;;;3.55;0.60;;;;;;;12.23;76.50;102114.13;5013994;28;96620;-30
2022/10/08 07:53:57;;;;;;;1.52;0.40;;;;;;;12.26;76.59;102117.56;5014779;28;96875;-30
2022/10/08 07:56:22;;;;;;;4.38;0.45;;;;;;;12.28;76.28;102126.53;5014623;28;100847;-30
2022/10/08 07:58:49;;;;;;;3.20;0.40;;;;;;;12.30;76.18;102130.06;5016115;28;97698;-31
2022/10/08 08:01:20;;;;;;;2.70;0.52;;;;;;;12.32;75.93;102135.41;5014736;28;96693;-32
2022/10/08 08:03:52;;;;;;;2.28;0.63;;;;;;;12.31;76.19;102137.25;5014970;28;96783;-30
2022/10/08 08:06:18;;;;;;;0.30;0.30;;;;;;;12.36;76.28;102138.88;5015410;28;101292;-31
2022/10/08 08:08:44;;;;;;;1.70;0.52;;;;;;;12.36;76.07;102145.19;5034462;28;100525;-30
2022/10/08 08:11:11;;;;;;;1.08;0.35;;;;;;;12.38;76.07;102146.00;5036141;28;96703;-31
2022/10/08 08:13:38;;;;;;;2.95;0.65;;;;;;;12.40;75.76;102154.06;5034416;28;96897;-30
2022/10/08 08:16:10;;;;;;;8.18;0.50;;;;;;;12.40;75.61;102151.34;5033910;28;101377;-30
2022/10/08 08:18:38;;;;;;;0.43;0.32;;;;;;;12.44;75.62;102163.81;5034387;28;101029;-30
2022/10/08 08:21:07;;;;;;;1.23;0.32;;;;;;;12.44;75.66;102170.16;5034712;28;96687;-30
2022/10/08 08:23:41;;;;;;;2.58;0.55;;;;;;;12.46;74.85;102168.22;5034608;28;96855;-30
2022/10/08 08:26:10;;;;;;;0.82;0.32;;;;;;;12.49;75.18;102167.22;5034214;28;101015;-30
2022/10/08 08:28:35;;;;;;;3.60;0.40;;;;;;;12.50;75.13;102171.69;5034131;28;100851;-30
2022/10/08 08:31:07;;;;;;;1.42;0.68;;;;;;;12.61;74.90;102177.50;5035991;27;96566;-30
2022/10/08 08:33:32;;;;;;;2.53;0.55;;;;;;;12.73;74.72;102176.88;5036516;27;96771;-30
2022/10/08 08:35:57;;;;;;;0.80;0.40;;;;;;;12.88;74.59;102185.25;5035837;28;97201;-30
2022/10/08 08:38:22;;;;;;;0.73;0.30;;;;;;;12.96;74.06;102186.59;5034872;27;110740;-31
2022/10/08 08:40:48;;;;;;;0.57;0.22;;;;;;;12.91;73.43;102187.81;5034612;28;102237;-30
2022/10/08 08:43:14;;;;;;;0.17;0.17;;;;;;;12.91;73.33;102196.84;5035376;27;96517;-30
2022/10/08 08:45:42;;;;;;;0.57;0.28;;;;;;;12.85;73.56;102202.59;5033567;28;101186;-30
2022/10/08 08:48:20;;;;;;;1.13;0.35;;;;;;;12.81;73.01;102209.13;5035236;27;99631;-30
2022/10/08 08:50:48;;;;;;;0.85;0.20;;;;;;;12.74;73.05;102213.09;5034446;28;96647;-30
2022/10/08 08:53:14;;;;;;;0.98;0.40;;;;;;;12.66;73.28;102210.78;5035412;27;96805;-30
2022/10/08 08:55:45;;;;;;;1.38;0.38;;;;;;;12.69;73.48;102213.34;5035076;28;99293;-30
2022/10/08 08:58:27;;;;;;;4.60;0.60;;;;;;;12.72;73.09;102217.72;5034120;27;100821;-30
2022/10/08 09:01:04;;;;;;;0.68;0.20;;;;;;;12.75;73.05;102204.88;5034251;27;96687;-31
2022/10/08 09:03:39;;;;;;;1.13;0.25;;;;;;;12.80;73.00;102217.34;5034107;28;96819;-30
2022/10/08 09:06:10;;;;;;;0.77;0.20;;;;;;;12.89;72.74;102222.34;5034306;27;99576;-30
2022/10/08 09:08:50;;;;;;;0.85;0.32;;;;;;;12.93;73.28;102224.84;5033770;28;98916;-30
2022/10/08 09:11:19;;;;;;;1.38;0.60;;;;;;;13.00;72.93;102230.00;5035941;27;96534;-31
2022/10/08 09:13:55;;;;;;;1.88;0.55;;;;;;;13.11;72.91;102228.50;5033656;28;97006;-30
2022/10/08 09:16:21;;;;;;;8.68;0.70;;;;;;;13.18;72.83;102234.53;5033652;28;100873;-30
2022/10/08 09:18:49;;;;;;;3.40;0.32;;;;;;;13.33;72.62;102235.59;5034817;28;97918;-31
2022/10/08 09:21:15;;;;;;;1.73;0.43;;;;;;;13.52;72.37;102251.88;5033870;28;96591;-30
2022/10/08 09:23:40;;;;;;;0.45;0.32;;;;;;;13.62;70.50;102250.44;5035611;28;96750;-30
2022/10/08 09:26:25;;;;;;;1.08;0.28;;;;;;;13.73;69.91;102261.66;5034887;27;97936;-30
2022/10/08 09:28:56;;;;;;;0.82;0.47;;;;;;;13.88;70.00;102262.69;5033473;28;100973;-31
2022/10/08 09:31:39;;;;;;;0.38;0.20;;;;;;;14.06;69.45;102259.94;5033302;28;96660;-30
2022/10/08 09:34:12;;;;;;;2.33;0.30;;;;;;;14.17;69.27;102258.41;5033577;28;96709;-30
2022/10/08 09:36:47;;;;;;;1.95;0.45;;;;;;;14.20;69.15;102273.69;5034620;27;97965;-32
2022/10/08 09:39:27;;;;;;;1.08;0.40;;;;;;;14.20;69.36;102269.13;5032940;27;101284;-30
2022/10/08 09:42:16;;;;;;;0.68;0.20;;;;;;;14.20;68.06;102279.16;5033603;28;96496;-30
2022/10/08 09:44:54;;;;;;;4.28;0.28;;;;;;;14.57;68.96;102279.91;5032991;28;96781;-30
2022/10/08 09:47:21;;;;;;;1.90;0.45;;;;;;;14.96;67.93;102282.22;5034499;27;99456;-30
2022/10/08 09:50:12;;;;;;;3.85;0.60;;;;;;;15.25;66.65;102283.31;5033229;28;100979;-30
2022/10/08 09:52:40;;;;;;;2.63;0.68;;;;;;;15.55;65.67;102276.13;5035186;28;96581;-30
2022/10/08 09:55:19;;;;;;;0.52;0.38;;;;;;;15.87;65.65;102287.84;5033416;28;97010;-30
2022/10/08 09:57:53;;;;;;;3.30;0.30;;;;;;;16.12;65.15;102282.66;5032490;28;101085;-31
2022/10/08 10:00:30;;;;;;;2.85;0.60;;;;;;;16.18;65.23;102291.44;5032815;28;101395;-30
2022/10/08 10:02:58;;;;;;;1.10;0.17;;;;;;;15.80;64.67;102302.84;5033319;28;96623;-30
2022/10/08 10:05:35;;;;;;;0.98;0.32;;;;;;;15.42;64.64;102290.50;5033285;28;96924;-32
2022/10/08 10:08:01;;;;;;;1.23;0.43;;;;;;;15.26;66.63;102298.69;5032948;28;100749;-31
2022/10/08 10:10:35;;;;;;;4.30;0.68;;;;;;;15.57;64.91;102287.84;5034147;27;99108;-30
2022/10/08 10:13:04;;;;;;;2.35;0.30;;;;;;;15.89;64.42;102296.84;5033917;27;96553;-30
2022/10/08 10:15:52;;;;;;;3.03;0.68;;;;;;;16.28;64.73;102300.81;5038059;27;96876;-30
2022/10/08 10:18:21;;;;;;;4.03;0.80;;;;;;;16.59;64.00;102301.63;5037440;28;98958;-30
2022/10/08 10:20:52;;;;;;;6.22;0.60;;;;;;;16.84;62.43;102304.56;5037849;27;96569;-29
2022/10/08 10:23:32;;;;;;;2.15;0.60;;;;;;;17.15;62.88;102302.56;5036029;28;96899;-31
2022/10/08 10:26:11;;;;;;;4.75;0.50;;;;;;;17.37;60.35;102310.22;5036624;28;96765;-30
2022/10/08 10:28:46;;;;;;;1.17;0.40;;;;;;;16.92;60.58;102310.44;5036190;28;98989;-31
2022/10/08 10:31:33;;;;;;;1.55;0.25;;;;;;;17.11;60.17;102311.97;5036295;28;100983;-30
2022/10/08 10:34:04;;;;;;;1.20;0.50;;;;;;;17.32;61.75;102323.38;5037987;28;97272;-31
2022/10/08 10:36:33;;;;;;;1.13;0.38;;;;;;;17.43;59.95;102329.00;5036559;28;96745;-30
2022/10/08 10:39:16;;;;;;;3.15;0.40;;;;;;;17.33;61.04;102328.75;5035912;27;101174;-30
2022/10/08 10:41:45;;;;;;;;;;;;;;;17.51;60.18;102325.75;5036663;28;101593;-29
2022/10/08 10:44:18;;;;;;;5.10;0.63;;;;;;;17.25;59.23;102327.50;5037481;28;96601;-30
2022/10/08 10:46:49;;;;;;;2.80;1.00;;;;;;;16.94;60.19;102338.56;5036168;28;96764;-30
2022/10/08 10:49:18;;;;;;;2.58;0.50;;;;;;;16.77;61.15;102336.91;5035563;28;100951;-31
2022/10/08 10:52:08;;;;;;;1.90;0.40;;;;;;;17.03;60.25;102336.25;5035791;28;100725;-30
2022/10/08 10:54:42;;;;;;;2.20;0.43;;;;;;;16.88;60.79;102343.59;5037354;28;96718;-31
2022/10/08 10:57:16;;;;;;;2.00;0.40;;;;;;;16.81;60.99;102344.97;5037466;27;96771;-30
2022/10/08 10:59:46;;;;;;;1.70;0.30;;;;;;;16.43;59.61;102345.50;5035634;28;101072;-30
2022/10/08 11:02:32;;;;;;;1.75;0.57;;;;;;;16.11;61.75;102342.88;5035588;28;100824;-30
2022/10/08 11:05:16;;;;;;;2.03;0.43;;;;;;;15.85;62.74;102347.19;5037549;27;96673;-30
2022/10/08 11:11:09;;;;;;;0.93;0.50;;;;;;;16.37;61.06;102345.88;5036829;28;97036;-30
2022/10/08 11:13:37;;;;;;;3.03;0.40;;;;;;;16.41;61.09;102361.13;5035293;28;100891;-30
2022/10/08 11:16:02;;;;;;;1.58;0.60;;;;;;;16.46;61.71;102351.63;5035307;28;96676;-30
2022/10/08 11:18:39;;;;;;;0.37;0.17;;;;;;;16.78;59.34;102348.75;5037462;28;96865;-32
2022/10/08 11:21:21;;;;;;;1.13;0.22;;;;;;;16.83;60.60;102353.94;5035350;28;101062;-32
2022/10/08 11:24:05;;;;;;;1.40;0.25;;;;;;;16.86;58.00;102364.69;5034911;27;100891;-32
2022/10/08 11:26:45;;;;;;;1.65;0.28;;;;;;;17.07;58.41;102365.19;5036618;28;96663;-31
2022/10/08 11:29:16;;;;;;;0.93;0.30;;;;;;;17.34;58.11;102357.88;5036723;27;96827;-30
2022/10/08 11:31:45;;;;;;;4.87;0.50;;;;;;;17.51;57.46;102350.41;5036859;27;97580;-30
2022/10/08 11:34:19;;;;;;;2.03;1.00;;;;;;;17.80;56.88;102359.41;5035402;27;100764;-30
2022/10/08 11:37:55;;;;;;;2.40;0.20;;;;;;;17.96;55.73;102354.66;5037117;28;96633;-30